Startpagina
METAR-TAF:

METAR-TAF

Vliegvelden :

Saint-Denis, Réunion

Aéroport de La Réunion Roland-Garros

breedte: 20-53S, lengte: 055-31E, hoogte: 21 m

Actueel weer

Dit bericht is 43 minuten geleden gemaakt, om 18:30 UTC
Wind 11 kt uit het oostzuidoosten
Temperatuur 24°C
Vochtigheid 65%
Druk 1022 hPa
Zicht 10 km of meer
geen wolken onder 1500 m en geen cumulonimbus

METAR: FMEE 211830Z AUTO 11011KT CAVOK 24/17 Q1022 NOSIG

Tijdstip: 23:13 (19:13 UTC)

Verwachting

Dit bericht is 2 uur en het 13 minuten geleden gemaakt, om 17:00 UTC
Verwachting geldig van 21 om 18 UTC tot 22 om 24 UTC
Wind 13 kt uit het zuidoosten
Zicht 10 km of meer
Weinig wolken op 2600 ft
Wijzigt naar
van 22 om 03 UTC tot 22 om 05 UTC
Wind 18 kt uit het oosten
Wijzigt naar
van 22 om 15 UTC tot 22 om 16 UTC
Wind 12 kt uit het zuidoosten

TAF: FMEE 211700Z 2118/2224 14013KT 9999 FEW026 BECMG 2203/2205 08018KT BECMG 2215/2216 14012KT

Waarnemingen en weersverwachtingen van meer dan 4000 vliegvelden (METAR en TAF).

De beschikbare stations zijn de gele en rode punten op de kaart.

Ga met uw muis naar het station om de naam te zien.

Klik dan om waarnemingen en weersverwachtingen te zien.

kaart wijzigen: klik op de groene knoppen met een zwart kruis om in te zoomen, op de groene knop met een streepje om uit te zoomen of op de groene pijlen voor aangrenzende kaarten.


METAR-TAF: